Hanseatic Scout — V2BM2 — position and weather

sailwx.info

Track history (hours):
 
Tides and Currents Weather Stations Pressure Air Temp Water Temp Dewpoint Dewpoint Depression Visibility Wind Speed Wind Dir Waves Ship Positions

Hanseatic Scout

Last reported at 2017-Oct-22 06:03 UTC. Time now 2017-Oct-22 08:22 UTC.
Position N 61°44' E 004°23'.

Length 89 m; draft 3.6 m.

Type: Ship. MMSI: 304867000.

Date/timePositionNaut miles runAvg speedWind from/ knotsBaromVisibWave heightAir tempDewpointWater temp
2017-Oct-22 06:03N 61°44' E 004°23'1 9.6
2017-Oct-22 06:00N 61°44' E 004°23'5 9.4
2017-Oct-22 05:30N 61°49' E 004°27'510.0
2017-Oct-22 04:59N 61°53' E 004°30'510.1
2017-Oct-22 04:30N 61°58' E 004°33'510.1
2017-Oct-22 03:59N 62°03' E 004°37'510.9
2017-Oct-22 03:30N 62°08' E 004°41'510.9
2017-Oct-22 03:00N 62°13' E 004°47'510.6
2017-Oct-22 02:30N 62°17' E 004°53'510.2
2017-Oct-22 02:00N 62°21' E 004°60'510.5
2017-Oct-22 01:30N 62°25' E 005°06'510.7
2017-Oct-22 01:00N 62°30' E 005°13'510.6
2017-Oct-22 00:30N 62°34' E 005°20'510.6
2017-Oct-22 00:00N 62°38' E 005°27'510.5
2017-Oct-21 23:29N 62°42' E 005°35'510.3
2017-Oct-21 23:00N 62°46' E 005°43'510.2
2017-Oct-21 22:30N 62°49' E 005°51'510.1
2017-Oct-21 22:00N 62°52' E 005°60'510.0
2017-Oct-21 21:30N 62°55' E 006°08'510.4
2017-Oct-21 21:00N 62°59' E 006°17'510.9
2017-Oct-21 20:30N 63°02' E 006°27'611.1
2017-Oct-21 20:00N 63°05' E 006°37'510.7
2017-Oct-21 19:29N 63°09' E 006°46'510.4
2017-Oct-21 19:00N 63°12' E 006°54'5 9.9
2017-Oct-21 18:30N 63°15' E 007°03'510.6
2017-Oct-21 18:00N 63°19' E 007°11'510.7
2017-Oct-21 17:30N 63°23' E 007°18'510.7
2017-Oct-21 17:00N 63°28' E 007°25'510.7
2017-Oct-21 16:30N 63°32' E 007°33'510.5
2017-Oct-21 16:00N 63°36' E 007°40'510.3
2017-Oct-21 15:29N 63°40' E 007°47'510.2
2017-Oct-21 15:00N 63°44' E 007°53'1111.0
2017-Oct-21 14:00N 63°53' E 008°10'510.8
2017-Oct-21 13:30N 63°57' E 008°17'164 9.6
2017-Oct-20 20:24N 66°16' E 011°46'511.7
2017-Oct-20 20:00N 66°16' E 011°57'611.5
2017-Oct-20 19:30N 66°17' E 012°11'510.3
2017-Oct-20 19:00N 66°15' E 012°24'510.6
2017-Oct-20 18:30N 66°15' E 012°37'510.9
2017-Oct-20 18:00N 66°19' E 012°47'510.9
2017-Oct-20 17:30N 66°22' E 012°57'611.7
2017-Oct-20 17:00N 66°28' E 012°59'5 9.7
2017-Oct-20 16:30N 66°33' E 013°02'510.2
2017-Oct-20 16:00N 66°38' E 013°05'511.1
2017-Oct-20 15:30N 66°43' E 013°10'611.4
2017-Oct-20 15:00N 66°48' E 013°20'1211.7
2017-Oct-20 14:00N 66°48' E 013°49'3 5.4
2017-Oct-20 13:30N 66°49' E 013°56'0 0.0
2017-Oct-20 12:57N 66°49' E 013°56'0 0.0
2017-Oct-20 12:30N 66°49' E 013°56'0 0.0
2017-Oct-20 12:00N 66°49' E 013°56'0 0.0
2017-Oct-20 11:30N 66°49' E 013°56'0 0.0
2017-Oct-20 11:00N 66°49' E 013°56'0 0.0
2017-Oct-20 10:30N 66°49' E 013°56'0 0.0
2017-Oct-20 10:00N 66°49' E 013°56'0 0.0
2017-Oct-20 09:27N 66°49' E 013°56'0 0.0
2017-Oct-20 08:57N 66°49' E 013°56'0 0.0
2017-Oct-20 08:27N 66°49' E 013°56'0 0.0
2017-Oct-20 07:36N 66°49' E 013°56'0 0.0
2017-Oct-20 07:24N 66°49' E 013°56'0 0.0
2017-Oct-20 06:54N 66°49' E 013°56'0 0.0
2017-Oct-20 06:30N 66°49' E 013°56'0 0.0
2017-Oct-20 06:00N 66°49' E 013°56'0 0.0
2017-Oct-20 05:24N 66°49' E 013°56'0 0.0
2017-Oct-20 05:00N 66°49' E 013°56'0 0.0
2017-Oct-20 04:18N 66°49' E 013°56'0 0.0
2017-Oct-20 04:00N 66°49' E 013°56'0 0.0
2017-Oct-20 03:30N 66°49' E 013°56'0 0.0
2017-Oct-20 02:59N 66°49' E 013°56'0 0.0
2017-Oct-20 02:23N 66°49' E 013°56'0 0.0
2017-Oct-20 01:59N 66°49' E 013°56'0 0.0
2017-Oct-20 01:26N 66°49' E 013°56'0 0.0
2017-Oct-20 00:56N 66°49' E 013°56'0 0.0
2017-Oct-20 00:29N 66°49' E 013°56'0 0.0
2017-Oct-19 23:59N 66°49' E 013°56'0 0.0
2017-Oct-19 23:29N 66°49' E 013°56'0 0.0
2017-Oct-19 22:59N 66°49' E 013°56'0 0.0
2017-Oct-19 22:26N 66°49' E 013°56'0 0.0
2017-Oct-19 21:56N 66°49' E 013°56'0 0.0
2017-Oct-19 21:17N 66°49' E 013°56'0 0.0
2017-Oct-19 20:50N 66°49' E 013°56'0 0.0
2017-Oct-19 20:29N 66°49' E 013°56'0 0.0
2017-Oct-19 19:59N 66°49' E 013°56'0 0.0
2017-Oct-19 19:26N 66°49' E 013°56'0 0.0
2017-Oct-19 18:59N 66°49' E 013°56'0 0.0
2017-Oct-19 18:26N 66°49' E 013°56'0 0.0
2017-Oct-19 17:59N 66°49' E 013°56'0 0.0
2017-Oct-19 17:29N 66°49' E 013°56'0 0.0
2017-Oct-19 16:59N 66°49' E 013°56'0 0.0
2017-Oct-19 16:29N 66°49' E 013°56'0 0.0
2017-Oct-19 15:59N 66°49' E 013°56'0 0.0
2017-Oct-19 15:29N 66°49' E 013°56'0 0.0
2017-Oct-19 14:59N 66°49' E 013°56'0 0.0
2017-Oct-19 14:29N 66°49' E 013°56'0 0.0
2017-Oct-19 13:59N 66°49' E 013°56'0 0.0
2017-Oct-19 13:29N 66°49' E 013°56'0 0.0
2017-Oct-19 12:59N 66°49' E 013°56'0 0.0
2017-Oct-19 12:29N 66°49' E 013°56'0 0.0
2017-Oct-19 11:56N 66°49' E 013°56'0 0.0
2017-Oct-19 11:26N 66°49' E 013°56'0 0.0
2017-Oct-19 10:59N 66°49' E 013°56'0 0.0
2017-Oct-19 10:23N 66°49' E 013°56'0 0.0
2017-Oct-19 09:59N 66°49' E 013°56'0 0.0
2017-Oct-19 09:29N 66°49' E 013°56'0 0.0
2017-Oct-19 08:59N 66°49' E 013°56'0 0.0
2017-Oct-19 08:29N 66°49' E 013°56'0 0.0
2017-Oct-19 07:56N 66°49' E 013°56'0 0.0
2017-Oct-19 07:29N 66°49' E 013°56'0 0.0
2017-Oct-19 06:50N 66°49' E 013°56'0 0.0
2017-Oct-19 06:29N 66°49' E 013°56'0 0.0
2017-Oct-19 05:59N 66°49' E 013°56'0 0.0
2017-Oct-19 05:29N 66°49' E 013°56'0 0.0
2017-Oct-19 04:59N 66°49' E 013°56'0 0.0
2017-Oct-19 04:29N 66°49' E 013°56'0 0.0
2017-Oct-19 03:59N 66°49' E 013°56'0 0.0
2017-Oct-19 03:29N 66°49' E 013°56'0 0.0
2017-Oct-19 02:59N 66°49' E 013°56'0 0.0
2017-Oct-19 02:29N 66°49' E 013°56'0 0.0
2017-Oct-19 01:59N 66°49' E 013°56'0 0.0
2017-Oct-19 01:29N 66°49' E 013°56'0 0.0
2017-Oct-19 00:59N 66°49' E 013°56'0 0.0
2017-Oct-19 00:29N 66°49' E 013°56'0 0.0
2017-Oct-18 23:59N 66°49' E 013°56'0 0.0
2017-Oct-18 23:29N 66°49' E 013°56'0 0.0
2017-Oct-18 22:53N 66°49' E 013°56'0 0.0
2017-Oct-18 22:29N 66°49' E 013°56'0 0.0
2017-Oct-18 21:59N 66°49' E 013°56'0 0.0
2017-Oct-18 21:29N 66°49' E 013°56'0 0.0
2017-Oct-18 20:59N 66°49' E 013°56'0 0.0
2017-Oct-18 20:30N 66°49' E 013°56'0 0.0
2017-Oct-18 19:57N 66°49' E 013°56'0 0.0
2017-Oct-18 19:30N 66°49' E 013°56'0 0.0
2017-Oct-18 19:00N 66°49' E 013°56'0 0.0
2017-Oct-18 18:30N 66°49' E 013°56'0 0.0
2017-Oct-18 17:57N 66°49' E 013°56'0 0.0
2017-Oct-18 17:27N 66°49' E 013°56'0 0.0
2017-Oct-18 17:00N 66°49' E 013°56'0 0.0
2017-Oct-18 16:30N 66°49' E 013°56'0 0.0
2017-Oct-18 16:00N 66°49' E 013°56'0 0.0
2017-Oct-18 15:30N 66°49' E 013°56'0 0.0
2017-Oct-18 15:00N 66°49' E 013°56'0 0.0
2017-Oct-18 14:00N 66°49' E 013°56'0 0.0
2017-Oct-18 13:30N 66°49' E 013°56'0 0.0
2017-Oct-18 13:00N 66°49' E 013°56'0 0.0
2017-Oct-18 12:30N 66°49' E 013°56'0 0.2
2017-Oct-18 12:00N 66°48' E 013°56'4 7.4
2017-Oct-18 11:29N 66°49' E 013°47'510.1
2017-Oct-18 11:00N 66°49' E 013°34'510.1
2017-Oct-18 10:30N 66°48' E 013°22'510.0
2017-Oct-18 10:00N 66°44' E 013°13'510.4
2017-Oct-18 09:30N 66°40' E 013°08'510.0
2017-Oct-18 09:00N 66°35' E 013°05'4 8.8
2017-Oct-18 08:30N 66°31' E 012°58'510.1
2017-Oct-18 07:59N 66°26' E 012°59'510.3
2017-Oct-18 07:30N 66°21' E 012°56'510.2
2017-Oct-18 07:00N 66°18' E 012°45'4 8.6
2017-Oct-18 06:30N 66°16' E 012°37'2 3.6
2017-Oct-18 06:00N 66°15' E 012°32'3 5.5
2017-Oct-18 05:30N 66°15' E 012°26'3 5.6
2017-Oct-18 05:00N 66°17' E 012°21'4 7.4
2017-Oct-18 04:30N 66°17' E 012°12'4 8.2
2017-Oct-18 04:00N 66°17' E 012°02'4 8.5
2017-Oct-18 03:30N 66°16' E 011°52'164 8.7
2017-Oct-17 08:34N 63°59' E 008°16'110.0
2017-Oct-17 08:30N 63°58' E 008°15'5 9.9
2017-Oct-17 08:00N 63°54' E 008°08'510.9
2017-Oct-17 07:30N 63°50' E 008°00'510.9
2017-Oct-17 07:00N 63°46' E 007°53'510.1
2017-Oct-17 06:30N 63°42' E 007°47'510.8
2017-Oct-17 06:00N 63°37' E 007°39'510.3
2017-Oct-17 05:30N 63°33' E 007°32'5 9.4
2017-Oct-17 05:00N 63°29' E 007°28'5 9.9
2017-Oct-17 04:30N 63°25' E 007°22'510.1
2017-Oct-17 04:00N 63°21' E 007°15'510.4
2017-Oct-17 03:30N 63°17' E 007°07'510.0
2017-Oct-17 03:00N 63°14' E 006°59'510.1
2017-Oct-17 02:30N 63°10' E 006°50'510.2
2017-Oct-17 02:00N 63°07' E 006°41'510.1
2017-Oct-17 01:30N 63°04' E 006°32'510.0
2017-Oct-17 01:00N 63°01' E 006°24'510.6
2017-Oct-17 00:30N 62°57' E 006°15'510.2
2017-Oct-17 00:00N 62°54' E 006°07'511.1
2017-Oct-16 23:30N 62°51' E 005°57'511.0
2017-Oct-16 23:00N 62°48' E 005°47'510.8
2017-Oct-16 22:30N 62°44' E 005°38'612.0
2017-Oct-16 22:00N 62°40' E 005°29'611.6
2017-Oct-16 21:30N 62°35' E 005°22'511.1
2017-Oct-16 21:00N 62°31' E 005°14'510.3
2017-Oct-16 20:30N 62°27' E 005°07'510.3
2017-Oct-16 20:00N 62°23' E 005°01'510.7
2017-Oct-16 19:30N 62°18' E 004°55'611.2
2017-Oct-16 19:00N 62°14' E 004°47'510.1
2017-Oct-16 18:30N 62°10' E 004°39'4 9.2
2017-Oct-16 18:00N 62°07' E 004°33'5 9.6
2017-Oct-16 17:30N 62°03' E 004°27'290 8.7
2017-Oct-15 08:10N 59°21' W 003°46'210.7
2017-Oct-15 08:00N 59°21' W 003°49'510.4
2017-Oct-15 07:30N 59°18' W 003°58'510.5
2017-Oct-15 07:01N 59°16' W 004°07'510.6
2017-Oct-15 06:30N 59°13' W 004°16'510.8
2017-Oct-15 06:00N 59°11' W 004°26'510.8
2017-Oct-15 05:30N 59°08' W 004°35'211 9.4
2017-Oct-14 06:59N 55°52' W 006°59'4 8.6
2017-Oct-14 06:30N 55°49' W 006°56'4 8.4
2017-Oct-14 05:59N 55°45' W 006°53'4 8.1
2017-Oct-14 05:30N 55°41' W 006°50'4 7.5
2017-Oct-14 05:00N 55°38' W 006°47'4 7.0
2017-Oct-14 04:30N 55°35' W 006°43'3 7.1
2017-Oct-14 04:00N 55°33' W 006°38'4 7.2
2017-Oct-14 03:30N 55°30' W 006°34'4 7.2
2017-Oct-14 03:00N 55°27' W 006°29'3 6.5
2017-Oct-14 02:30N 55°27' W 006°24'4 7.2
2017-Oct-14 02:00N 55°26' W 006°17'4 7.2
2017-Oct-14 01:30N 55°25' W 006°11'4 7.7
2017-Oct-14 01:00N 55°25' W 006°05'4 8.6
2017-Oct-14 00:31N 55°22' W 005°59'510.1
2017-Oct-14 00:00N 55°18' W 005°54'510.7
2017-Oct-13 23:30N 55°13' W 005°49'611.3
2017-Oct-13 23:00N 55°08' W 005°44'611.4
2017-Oct-13 22:29N 55°03' W 005°38'611.4
2017-Oct-13 22:00N 54°59' W 005°33'611.7
2017-Oct-13 21:30N 54°54' W 005°27'611.6
2017-Oct-13 21:01N 54°49' W 005°22'611.6
2017-Oct-13 20:30N 54°44' W 005°16'611.5
2017-Oct-13 20:00N 54°39' W 005°11'611.1
2017-Oct-13 19:30N 54°34' W 005°07'611.0
2017-Oct-13 19:00N 54°29' W 005°08'510.5
2017-Oct-13 18:30N 54°24' W 005°09'510.0
2017-Oct-13 18:00N 54°19' W 005°10'510.0
2017-Oct-13 17:30N 54°14' W 005°11'5 9.9
2017-Oct-13 17:00N 54°09' W 005°13'159 9.9
2017-Oct-13 01:00N 51°32' W 005°54'610.9
2017-Oct-13 00:26N 51°26' W 005°57'5310.6
2017-Oct-12 19:27N 50°35' W 006°21'910.6
2017-Oct-12 18:38N 50°27' W 006°25'310.6
2017-Oct-12 18:20N 50°24' W 006°26'5910.0
2017-Oct-12 12:27N 49°27' W 006°49'  
Track history (hours):
 
Tides and Currents Weather Stations Pressure Air Temp Water Temp Dewpoint Dewpoint Depression Visibility Wind Speed Wind Dir Waves Ship Positions

Hanseatic Scout

Last reported at 2017-Oct-22 06:03 UTC. Time now 2017-Oct-22 08:22 UTC.
Position N 61°44' E 004°23'.

Length 89 m; draft 3.6 m.

Type: Ship. MMSI: 304867000.

Date/timePositionNaut miles runAvg speedWind from/ knotsBaromVisibWave heightAir tempDewpointWater temp
2017-Oct-22 06:03N 61°44' E 004°23'1 9.6
2017-Oct-22 06:00N 61°44' E 004°23'5 9.4
2017-Oct-22 05:30N 61°49' E 004°27'510.0
2017-Oct-22 04:59N 61°53' E 004°30'510.1
2017-Oct-22 04:30N 61°58' E 004°33'510.1
2017-Oct-22 03:59N 62°03' E 004°37'510.9
2017-Oct-22 03:30N 62°08' E 004°41'510.9
2017-Oct-22 03:00N 62°13' E 004°47'510.6
2017-Oct-22 02:30N 62°17' E 004°53'510.2
2017-Oct-22 02:00N 62°21' E 004°60'510.5
2017-Oct-22 01:30N 62°25' E 005°06'510.7
2017-Oct-22 01:00N 62°30' E 005°13'510.6
2017-Oct-22 00:30N 62°34' E 005°20'510.6
2017-Oct-22 00:00N 62°38' E 005°27'510.5
2017-Oct-21 23:29N 62°42' E 005°35'510.3
2017-Oct-21 23:00N 62°46' E 005°43'510.2
2017-Oct-21 22:30N 62°49' E 005°51'510.1
2017-Oct-21 22:00N 62°52' E 005°60'510.0
2017-Oct-21 21:30N 62°55' E 006°08'510.4
2017-Oct-21 21:00N 62°59' E 006°17'510.9
2017-Oct-21 20:30N 63°02' E 006°27'611.1
2017-Oct-21 20:00N 63°05' E 006°37'510.7
2017-Oct-21 19:29N 63°09' E 006°46'510.4
2017-Oct-21 19:00N 63°12' E 006°54'5 9.9
2017-Oct-21 18:30N 63°15' E 007°03'510.6
2017-Oct-21 18:00N 63°19' E 007°11'510.7
2017-Oct-21 17:30N 63°23' E 007°18'510.7
2017-Oct-21 17:00N 63°28' E 007°25'510.7
2017-Oct-21 16:30N 63°32' E 007°33'510.5
2017-Oct-21 16:00N 63°36' E 007°40'510.3
2017-Oct-21 15:29N 63°40' E 007°47'510.2
2017-Oct-21 15:00N 63°44' E 007°53'1111.0
2017-Oct-21 14:00N 63°53' E 008°10'510.8
2017-Oct-21 13:30N 63°57' E 008°17'164 9.6
2017-Oct-20 20:24N 66°16' E 011°46'511.7
2017-Oct-20 20:00N 66°16' E 011°57'611.5
2017-Oct-20 19:30N 66°17' E 012°11'510.3
2017-Oct-20 19:00N 66°15' E 012°24'510.6
2017-Oct-20 18:30N 66°15' E 012°37'510.9
2017-Oct-20 18:00N 66°19' E 012°47'510.9
2017-Oct-20 17:30N 66°22' E 012°57'611.7
2017-Oct-20 17:00N 66°28' E 012°59'5 9.7
2017-Oct-20 16:30N 66°33' E 013°02'510.2
2017-Oct-20 16:00N 66°38' E 013°05'511.1
2017-Oct-20 15:30N 66°43' E 013°10'611.4
2017-Oct-20 15:00N 66°48' E 013°20'1211.7
2017-Oct-20 14:00N 66°48' E 013°49'3 5.4
2017-Oct-20 13:30N 66°49' E 013°56'0 0.0
2017-Oct-20 12:57N 66°49' E 013°56'0 0.0
2017-Oct-20 12:30N 66°49' E 013°56'0 0.0
2017-Oct-20 12:00N 66°49' E 013°56'0 0.0
2017-Oct-20 11:30N 66°49' E 013°56'0 0.0
2017-Oct-20 11:00N 66°49' E 013°56'0 0.0
2017-Oct-20 10:30N 66°49' E 013°56'0 0.0
2017-Oct-20 10:00N 66°49' E 013°56'0 0.0
2017-Oct-20 09:27N 66°49' E 013°56'0 0.0
2017-Oct-20 08:57N 66°49' E 013°56'0 0.0
2017-Oct-20 08:27N 66°49' E 013°56'0 0.0
2017-Oct-20 07:36N 66°49' E 013°56'0 0.0
2017-Oct-20 07:24N 66°49' E 013°56'0 0.0
2017-Oct-20 06:54N 66°49' E 013°56'0 0.0
2017-Oct-20 06:30N 66°49' E 013°56'0 0.0
2017-Oct-20 06:00N 66°49' E 013°56'0 0.0
2017-Oct-20 05:24N 66°49' E 013°56'0 0.0
2017-Oct-20 05:00N 66°49' E 013°56'0 0.0
2017-Oct-20 04:18N 66°49' E 013°56'0 0.0
2017-Oct-20 04:00N 66°49' E 013°56'0 0.0
2017-Oct-20 03:30N 66°49' E 013°56'0 0.0
2017-Oct-20 02:59N 66°49' E 013°56'0 0.0
2017-Oct-20 02:23N 66°49' E 013°56'0 0.0
2017-Oct-20 01:59N 66°49' E 013°56'0 0.0
2017-Oct-20 01:26N 66°49' E 013°56'0 0.0
2017-Oct-20 00:56N 66°49' E 013°56'0 0.0
2017-Oct-20 00:29N 66°49' E 013°56'0 0.0
2017-Oct-19 23:59N 66°49' E 013°56'0 0.0
2017-Oct-19 23:29N 66°49' E 013°56'0 0.0
2017-Oct-19 22:59N 66°49' E 013°56'0 0.0
2017-Oct-19 22:26N 66°49' E 013°56'0 0.0
2017-Oct-19 21:56N 66°49' E 013°56'0 0.0
2017-Oct-19 21:17N 66°49' E 013°56'0 0.0
2017-Oct-19 20:50N 66°49' E 013°56'0 0.0
2017-Oct-19 20:29N 66°49' E 013°56'0 0.0
2017-Oct-19 19:59N 66°49' E 013°56'0 0.0
2017-Oct-19 19:26N 66°49' E 013°56'0 0.0
2017-Oct-19 18:59N 66°49' E 013°56'0 0.0
2017-Oct-19 18:26N 66°49' E 013°56'0 0.0
2017-Oct-19 17:59N 66°49' E 013°56'0 0.0
2017-Oct-19 17:29N 66°49' E 013°56'0 0.0
2017-Oct-19 16:59N 66°49' E 013°56'0 0.0
2017-Oct-19 16:29N 66°49' E 013°56'0 0.0
2017-Oct-19 15:59N 66°49' E 013°56'0 0.0
2017-Oct-19 15:29N 66°49' E 013°56'0 0.0
2017-Oct-19 14:59N 66°49' E 013°56'0 0.0
2017-Oct-19 14:29N 66°49' E 013°56'0 0.0
2017-Oct-19 13:59N 66°49' E 013°56'0 0.0
2017-Oct-19 13:29N 66°49' E 013°56'0 0.0
2017-Oct-19 12:59N 66°49' E 013°56'0 0.0
2017-Oct-19 12:29N 66°49' E 013°56'0 0.0
2017-Oct-19 11:56N 66°49' E 013°56'0 0.0
2017-Oct-19 11:26N 66°49' E 013°56'0 0.0
2017-Oct-19 10:59N 66°49' E 013°56'0 0.0
2017-Oct-19 10:23N 66°49' E 013°56'0 0.0
2017-Oct-19 09:59N 66°49' E 013°56'0 0.0
2017-Oct-19 09:29N 66°49' E 013°56'0 0.0
2017-Oct-19 08:59N 66°49' E 013°56'0 0.0
2017-Oct-19 08:29N 66°49' E 013°56'0 0.0
2017-Oct-19 07:56N 66°49' E 013°56'0 0.0
2017-Oct-19 07:29N 66°49' E 013°56'0 0.0
2017-Oct-19 06:50N 66°49' E 013°56'0 0.0
2017-Oct-19 06:29N 66°49' E 013°56'0 0.0
2017-Oct-19 05:59N 66°49' E 013°56'0 0.0
2017-Oct-19 05:29N 66°49' E 013°56'0 0.0
2017-Oct-19 04:59N 66°49' E 013°56'0 0.0
2017-Oct-19 04:29N 66°49' E 013°56'0 0.0
2017-Oct-19 03:59N 66°49' E 013°56'0 0.0
2017-Oct-19 03:29N 66°49' E 013°56'0 0.0
2017-Oct-19 02:59N 66°49' E 013°56'0 0.0
2017-Oct-19 02:29N 66°49' E 013°56'0 0.0
2017-Oct-19 01:59N 66°49' E 013°56'0 0.0
2017-Oct-19 01:29N 66°49' E 013°56'0 0.0
2017-Oct-19 00:59N 66°49' E 013°56'0 0.0
2017-Oct-19 00:29N 66°49' E 013°56'0 0.0
2017-Oct-18 23:59N 66°49' E 013°56'0 0.0
2017-Oct-18 23:29N 66°49' E 013°56'0 0.0
2017-Oct-18 22:53N 66°49' E 013°56'0 0.0
2017-Oct-18 22:29N 66°49' E 013°56'0 0.0
2017-Oct-18 21:59N 66°49' E 013°56'0 0.0
2017-Oct-18 21:29N 66°49' E 013°56'0 0.0
2017-Oct-18 20:59N 66°49' E 013°56'0 0.0
2017-Oct-18 20:30N 66°49' E 013°56'0 0.0
2017-Oct-18 19:57N 66°49' E 013°56'0 0.0
2017-Oct-18 19:30N 66°49' E 013°56'0 0.0
2017-Oct-18 19:00N 66°49' E 013°56'0 0.0
2017-Oct-18 18:30N 66°49' E 013°56'0 0.0
2017-Oct-18 17:57N 66°49' E 013°56'0 0.0
2017-Oct-18 17:27N 66°49' E 013°56'0 0.0
2017-Oct-18 17:00N 66°49' E 013°56'0 0.0
2017-Oct-18 16:30N 66°49' E 013°56'0 0.0
2017-Oct-18 16:00N 66°49' E 013°56'0 0.0
2017-Oct-18 15:30N 66°49' E 013°56'0 0.0
2017-Oct-18 15:00N 66°49' E 013°56'0 0.0
2017-Oct-18 14:00N 66°49' E 013°56'0 0.0
2017-Oct-18 13:30N 66°49' E 013°56'0 0.0
2017-Oct-18 13:00N 66°49' E 013°56'0 0.0
2017-Oct-18 12:30N 66°49' E 013°56'0 0.2
2017-Oct-18 12:00N 66°48' E 013°56'4 7.4
2017-Oct-18 11:29N 66°49' E 013°47'510.1
2017-Oct-18 11:00N 66°49' E 013°34'510.1
2017-Oct-18 10:30N 66°48' E 013°22'510.0
2017-Oct-18 10:00N 66°44' E 013°13'510.4
2017-Oct-18 09:30N 66°40' E 013°08'510.0
2017-Oct-18 09:00N 66°35' E 013°05'4 8.8
2017-Oct-18 08:30N 66°31' E 012°58'510.1
2017-Oct-18 07:59N 66°26' E 012°59'510.3
2017-Oct-18 07:30N 66°21' E 012°56'510.2
2017-Oct-18 07:00N 66°18' E 012°45'4 8.6
2017-Oct-18 06:30N 66°16' E 012°37'2 3.6
2017-Oct-18 06:00N 66°15' E 012°32'3 5.5
2017-Oct-18 05:30N 66°15' E 012°26'3 5.6
2017-Oct-18 05:00N 66°17' E 012°21'4 7.4
2017-Oct-18 04:30N 66°17' E 012°12'4 8.2
2017-Oct-18 04:00N 66°17' E 012°02'4 8.5
2017-Oct-18 03:30N 66°16' E 011°52'164 8.7
2017-Oct-17 08:34N 63°59' E 008°16'110.0
2017-Oct-17 08:30N 63°58' E 008°15'5 9.9
2017-Oct-17 08:00N 63°54' E 008°08'510.9
2017-Oct-17 07:30N 63°50' E 008°00'510.9
2017-Oct-17 07:00N 63°46' E 007°53'510.1
2017-Oct-17 06:30N 63°42' E 007°47'510.8
2017-Oct-17 06:00N 63°37' E 007°39'510.3
2017-Oct-17 05:30N 63°33' E 007°32'5 9.4
2017-Oct-17 05:00N 63°29' E 007°28'5 9.9
2017-Oct-17 04:30N 63°25' E 007°22'510.1
2017-Oct-17 04:00N 63°21' E 007°15'510.4
2017-Oct-17 03:30N 63°17' E 007°07'510.0
2017-Oct-17 03:00N 63°14' E 006°59'510.1
2017-Oct-17 02:30N 63°10' E 006°50'510.2
2017-Oct-17 02:00N 63°07' E 006°41'510.1
2017-Oct-17 01:30N 63°04' E 006°32'510.0
2017-Oct-17 01:00N 63°01' E 006°24'510.6
2017-Oct-17 00:30N 62°57' E 006°15'510.2
2017-Oct-17 00:00N 62°54' E 006°07'511.1
2017-Oct-16 23:30N 62°51' E 005°57'511.0
2017-Oct-16 23:00N 62°48' E 005°47'510.8
2017-Oct-16 22:30N 62°44' E 005°38'612.0
2017-Oct-16 22:00N 62°40' E 005°29'611.6
2017-Oct-16 21:30N 62°35' E 005°22'511.1
2017-Oct-16 21:00N 62°31' E 005°14'510.3
2017-Oct-16 20:30N 62°27' E 005°07'510.3
2017-Oct-16 20:00N 62°23' E 005°01'510.7
2017-Oct-16 19:30N 62°18' E 004°55'611.2
2017-Oct-16 19:00N 62°14' E 004°47'510.1
2017-Oct-16 18:30N 62°10' E 004°39'4 9.2
2017-Oct-16 18:00N 62°07' E 004°33'5 9.6
2017-Oct-16 17:30N 62°03' E 004°27'290 8.7
2017-Oct-15 08:10N 59°21' W 003°46'210.7
2017-Oct-15 08:00N 59°21' W 003°49'510.4
2017-Oct-15 07:30N 59°18' W 003°58'510.5
2017-Oct-15 07:01N 59°16' W 004°07'510.6
2017-Oct-15 06:30N 59°13' W 004°16'510.8
2017-Oct-15 06:00N 59°11' W 004°26'510.8
2017-Oct-15 05:30N 59°08' W 004°35'211 9.4
2017-Oct-14 06:59N 55°52' W 006°59'4 8.6
2017-Oct-14 06:30N 55°49' W 006°56'4 8.4
2017-Oct-14 05:59N 55°45' W 006°53'4 8.1
2017-Oct-14 05:30N 55°41' W 006°50'4 7.5
2017-Oct-14 05:00N 55°38' W 006°47'4 7.0
2017-Oct-14 04:30N 55°35' W 006°43'3 7.1
2017-Oct-14 04:00N 55°33' W 006°38'4 7.2
2017-Oct-14 03:30N 55°30' W 006°34'4 7.2
2017-Oct-14 03:00N 55°27' W 006°29'3 6.5
2017-Oct-14 02:30N 55°27' W 006°24'4 7.2
2017-Oct-14 02:00N 55°26' W 006°17'4 7.2
2017-Oct-14 01:30N 55°25' W 006°11'4 7.7
2017-Oct-14 01:00N 55°25' W 006°05'4 8.6
2017-Oct-14 00:31N 55°22' W 005°59'510.1
2017-Oct-14 00:00N 55°18' W 005°54'510.7
2017-Oct-13 23:30N 55°13' W 005°49'611.3
2017-Oct-13 23:00N 55°08' W 005°44'611.4
2017-Oct-13 22:29N 55°03' W 005°38'611.4
2017-Oct-13 22:00N 54°59' W 005°33'611.7
2017-Oct-13 21:30N 54°54' W 005°27'611.6
2017-Oct-13 21:01N 54°49' W 005°22'611.6
2017-Oct-13 20:30N 54°44' W 005°16'611.5
2017-Oct-13 20:00N 54°39' W 005°11'611.1
2017-Oct-13 19:30N 54°34' W 005°07'611.0
2017-Oct-13 19:00N 54°29' W 005°08'510.5
2017-Oct-13 18:30N 54°24' W 005°09'510.0
2017-Oct-13 18:00N 54°19' W 005°10'510.0
2017-Oct-13 17:30N 54°14' W 005°11'5 9.9
2017-Oct-13 17:00N 54°09' W 005°13'159 9.9
2017-Oct-13 01:00N 51°32' W 005°54'610.9
2017-Oct-13 00:26N 51°26' W 005°57'5310.6
2017-Oct-12 19:27N 50°35' W 006°21'910.6
2017-Oct-12 18:38N 50°27' W 006°25'310.6
2017-Oct-12 18:20N 50°24' W 006°26'5910.0
2017-Oct-12 12:27N 49°27' W 006°49'  

Dump ship's entire track history